Airport View

Enter AWOS ICAO identifier for current METAR.

ex. KFNL

KAKO 041353Z AUTO 20012KT 10SM CLR 24/12 A3014 RMK AO2 SLP149 T02390117

4 Jul 2020 14:13

Frequency: 135.475

Phone: 970-345-2320

Other Area AWOS: K2V6 - KSTK - KFMM - K2V5

TAF KSNY 041120Z 0412/0512 24012KT P6SM SCT100 FM041500 17013G24KT P6SM SCT100 FM050000 17015G24KT P6SM VCTS BKN250CB FM050600 19008KT P6SM BKN250